sensor_id;sensor_type;location;lat;lon;timestamp;P1;durP1;ratioP1;P2;durP2;ratioP2
16922;SDS011;8578;50.938;13.556;2022-11-20T00:02:01;8.83;;;4.23;;
16922;SDS011;8578;50.938;13.556;2022-11-20T00:04:29;7.37;;;3.70;;
16922;SDS011;8578;50.938;13.556;2022-11-20T00:06:56;9.33;;;4.00;;
16922;SDS011;8578;50.938;13.556;2022-11-20T00:09:23;8.67;;;4.17;;
16922;SDS011;8578;50.938;13.556;2022-11-20T00:11:52;9.87;;;4.23;;
16922;SDS011;8578;50.938;13.556;2022-11-20T00:14:20;8.43;;;4.00;;
16922;SDS011;8578;50.938;13.556;2022-11-20T00:16:47;9.47;;;4.13;;
16922;SDS011;8578;50.938;13.556;2022-11-20T00:19:15;6.93;;;3.27;;
16922;SDS011;8578;50.938;13.556;2022-11-20T00:21:43;8.30;;;3.13;;
16922;SDS011;8578;50.938;13.556;2022-11-20T00:24:10;8.93;;;3.37;;
16922;SDS011;8578;50.938;13.556;2022-11-20T00:26:38;9.40;;;4.10;;
16922;SDS011;8578;50.938;13.556;2022-11-20T00:29:08;11.23;;;3.83;;
16922;SDS011;8578;50.938;13.556;2022-11-20T00:31:36;10.03;;;3.73;;
16922;SDS011;8578;50.938;13.556;2022-11-20T00:34:03;8.37;;;4.10;;
16922;SDS011;8578;50.938;13.556;2022-11-20T00:36:31;8.30;;;3.30;;
16922;SDS011;8578;50.938;13.556;2022-11-20T00:38:59;9.27;;;3.43;;
16922;SDS011;8578;50.938;13.556;2022-11-20T00:41:27;9.07;;;4.03;;
16922;SDS011;8578;50.938;13.556;2022-11-20T00:43:55;8.57;;;4.03;;
16922;SDS011;8578;50.938;13.556;2022-11-20T00:46:25;9.60;;;3.47;;
16922;SDS011;8578;50.938;13.556;2022-11-20T00:48:52;10.83;;;3.83;;
16922;SDS011;8578;50.938;13.556;2022-11-20T00:51:21;8.23;;;3.57;;
16922;SDS011;8578;50.938;13.556;2022-11-20T00:53:49;8.40;;;4.17;;
16922;SDS011;8578;50.938;13.556;2022-11-20T00:56:17;8.13;;;2.93;;
16922;SDS011;8578;50.938;13.556;2022-11-20T00:58:45;6.43;;;2.80;;
16922;SDS011;8578;50.938;13.556;2022-11-20T01:01:14;8.40;;;3.43;;
16922;SDS011;8578;50.938;13.556;2022-11-20T01:03:43;7.00;;;2.93;;
16922;SDS011;8578;50.938;13.556;2022-11-20T01:06:12;7.43;;;3.23;;
16922;SDS011;8578;50.938;13.556;2022-11-20T01:08:40;8.73;;;3.73;;
16922;SDS011;8578;50.938;13.556;2022-11-20T01:11:08;6.90;;;2.93;;
16922;SDS011;8578;50.938;13.556;2022-11-20T01:13:36;10.33;;;3.73;;
16922;SDS011;8578;50.938;13.556;2022-11-20T01:16:04;8.30;;;3.07;;
16922;SDS011;8578;50.938;13.556;2022-11-20T01:18:32;7.63;;;2.93;;
16922;SDS011;8578;50.938;13.556;2022-11-20T01:21:02;5.57;;;2.87;;
16922;SDS011;8578;50.938;13.556;2022-11-20T01:23:31;7.73;;;2.73;;
16922;SDS011;8578;50.938;13.556;2022-11-20T01:25:59;7.60;;;2.83;;
16922;SDS011;8578;50.938;13.556;2022-11-20T01:28:27;11.50;;;3.80;;
16922;SDS011;8578;50.938;13.556;2022-11-20T01:30:55;6.57;;;3.03;;
16922;SDS011;8578;50.938;13.556;2022-11-20T01:33:23;6.97;;;3.03;;
16922;SDS011;8578;50.938;13.556;2022-11-20T01:35:50;5.47;;;2.53;;
16922;SDS011;8578;50.938;13.556;2022-11-20T01:38:19;7.30;;;2.70;;
16922;SDS011;8578;50.938;13.556;2022-11-20T01:40:53;5.10;;;2.73;;
16922;SDS011;8578;50.938;13.556;2022-11-20T01:43:21;5.23;;;2.47;;
16922;SDS011;8578;50.938;13.556;2022-11-20T01:46:01;6.80;;;2.73;;
16922;SDS011;8578;50.938;13.556;2022-11-20T01:48:32;7.53;;;2.67;;
16922;SDS011;8578;50.938;13.556;2022-11-20T01:51:00;10.07;;;2.87;;
16922;SDS011;8578;50.938;13.556;2022-11-20T01:53:31;7.00;;;2.97;;
16922;SDS011;8578;50.938;13.556;2022-11-20T01:55:59;7.30;;;3.20;;
16922;SDS011;8578;50.938;13.556;2022-11-20T01:58:29;7.17;;;2.57;;
16922;SDS011;8578;50.938;13.556;2022-11-20T02:00:57;5.83;;;2.10;;
16922;SDS011;8578;50.938;13.556;2022-11-20T02:03:25;6.90;;;3.17;;
16922;SDS011;8578;50.938;13.556;2022-11-20T02:05:54;9.20;;;3.50;;
16922;SDS011;8578;50.938;13.556;2022-11-20T02:08:23;6.13;;;2.37;;
16922;SDS011;8578;50.938;13.556;2022-11-20T02:10:53;8.90;;;3.70;;
16922;SDS011;8578;50.938;13.556;2022-11-20T02:17:08;8.30;;;3.23;;
16922;SDS011;8578;50.938;13.556;2022-11-20T02:19:35;7.00;;;2.93;;
16922;SDS011;8578;50.938;13.556;2022-11-20T02:22:04;6.43;;;2.93;;
16922;SDS011;8578;50.938;13.556;2022-11-20T02:24:34;8.23;;;3.53;;
16922;SDS011;8578;50.938;13.556;2022-11-20T02:27:03;9.60;;;3.50;;
16922;SDS011;8578;50.938;13.556;2022-11-20T02:29:32;8.90;;;3.40;;
16922;SDS011;8578;50.938;13.556;2022-11-20T02:32:00;7.57;;;3.47;;
16922;SDS011;8578;50.938;13.556;2022-11-20T02:34:29;8.63;;;3.33;;
16922;SDS011;8578;50.938;13.556;2022-11-20T02:36:57;6.37;;;3.00;;
16922;SDS011;8578;50.938;13.556;2022-11-20T02:39:25;5.90;;;2.80;;
16922;SDS011;8578;50.938;13.556;2022-11-20T02:41:56;7.83;;;2.53;;
16922;SDS011;8578;50.938;13.556;2022-11-20T02:44:23;6.83;;;2.83;;
16922;SDS011;8578;50.938;13.556;2022-11-20T02:46:51;5.40;;;2.70;;
16922;SDS011;8578;50.938;13.556;2022-11-20T02:49:18;6.13;;;2.57;;
16922;SDS011;8578;50.938;13.556;2022-11-20T02:51:47;7.57;;;3.13;;
16922;SDS011;8578;50.938;13.556;2022-11-20T02:54:14;6.07;;;3.07;;
16922;SDS011;8578;50.938;13.556;2022-11-20T02:56:42;9.23;;;2.73;;
16922;SDS011;8578;50.938;13.556;2022-11-20T02:59:10;4.23;;;2.40;;
16922;SDS011;8578;50.938;13.556;2022-11-20T03:01:39;5.67;;;2.17;;
16922;SDS011;8578;50.938;13.556;2022-11-20T03:04:07;9.70;;;3.10;;
16922;SDS011;8578;50.938;13.556;2022-11-20T03:06:34;6.87;;;2.90;;
16922;SDS011;8578;50.938;13.556;2022-11-20T03:09:02;9.33;;;3.47;;
16922;SDS011;8578;50.938;13.556;2022-11-20T03:11:30;8.37;;;3.20;;
16922;SDS011;8578;50.938;13.556;2022-11-20T03:14:01;6.70;;;3.47;;
16922;SDS011;8578;50.938;13.556;2022-11-20T03:16:30;7.93;;;3.27;;
16922;SDS011;8578;50.938;13.556;2022-11-20T03:18:58;8.70;;;3.47;;
16922;SDS011;8578;50.938;13.556;2022-11-20T03:21:26;8.80;;;4.00;;
16922;SDS011;8578;50.938;13.556;2022-11-20T03:23:53;9.60;;;3.70;;
16922;SDS011;8578;50.938;13.556;2022-11-20T03:26:21;9.20;;;3.40;;
16922;SDS011;8578;50.938;13.556;2022-11-20T03:28:50;4.83;;;2.27;;
16922;SDS011;8578;50.938;13.556;2022-11-20T03:31:19;5.17;;;2.27;;
16922;SDS011;8578;50.938;13.556;2022-11-20T03:33:48;6.00;;;2.97;;
16922;SDS011;8578;50.938;13.556;2022-11-20T03:36:16;5.07;;;2.37;;
16922;SDS011;8578;50.938;13.556;2022-11-20T03:38:44;7.13;;;3.27;;
16922;SDS011;8578;50.938;13.556;2022-11-20T03:41:13;8.37;;;2.73;;
16922;SDS011;8578;50.938;13.556;2022-11-20T03:43:40;5.60;;;2.30;;
16922;SDS011;8578;50.938;13.556;2022-11-20T03:46:08;5.43;;;2.53;;
16922;SDS011;8578;50.938;13.556;2022-11-20T03:48:36;7.20;;;2.67;;
16922;SDS011;8578;50.938;13.556;2022-11-20T03:51:08;6.87;;;2.90;;
16922;SDS011;8578;50.938;13.556;2022-11-20T03:53:36;6.70;;;3.17;;
16922;SDS011;8578;50.938;13.556;2022-11-20T03:56:03;6.47;;;3.00;;
16922;SDS011;8578;50.938;13.556;2022-11-20T03:58:32;7.47;;;3.03;;
16922;SDS011;8578;50.938;13.556;2022-11-20T04:01:03;5.70;;;2.60;;
16922;SDS011;8578;50.938;13.556;2022-11-20T04:03:31;4.87;;;2.37;;
16922;SDS011;8578;50.938;13.556;2022-11-20T04:06:01;7.50;;;2.77;;
16922;SDS011;8578;50.938;13.556;2022-11-20T04:08:30;5.87;;;2.83;;
16922;SDS011;8578;50.938;13.556;2022-11-20T04:11:07;7.67;;;3.77;;
16922;SDS011;8578;50.938;13.556;2022-11-20T04:13:34;8.67;;;3.10;;
16922;SDS011;8578;50.938;13.556;2022-11-20T04:16:03;5.13;;;2.53;;
16922;SDS011;8578;50.938;13.556;2022-11-20T04:18:31;6.93;;;2.43;;
16922;SDS011;8578;50.938;13.556;2022-11-20T04:20:59;3.33;;;2.07;;
16922;SDS011;8578;50.938;13.556;2022-11-20T04:23:27;7.40;;;3.33;;
16922;SDS011;8578;50.938;13.556;2022-11-20T04:25:59;6.93;;;2.83;;
16922;SDS011;8578;50.938;13.556;2022-11-20T04:28:27;6.83;;;2.43;;
16922;SDS011;8578;50.938;13.556;2022-11-20T04:31:00;5.97;;;2.43;;
16922;SDS011;8578;50.938;13.556;2022-11-20T04:33:28;6.67;;;2.30;;
16922;SDS011;8578;50.938;13.556;2022-11-20T04:36:00;4.70;;;2.50;;
16922;SDS011;8578;50.938;13.556;2022-11-20T04:38:28;5.90;;;2.53;;
16922;SDS011;8578;50.938;13.556;2022-11-20T04:40:57;4.73;;;2.20;;
16922;SDS011;8578;50.938;13.556;2022-11-20T04:43:25;6.13;;;2.27;;
16922;SDS011;8578;50.938;13.556;2022-11-20T04:45:53;6.50;;;2.30;;
16922;SDS011;8578;50.938;13.556;2022-11-20T04:48:20;4.47;;;2.40;;
16922;SDS011;8578;50.938;13.556;2022-11-20T04:50:48;6.00;;;2.30;;
16922;SDS011;8578;50.938;13.556;2022-11-20T04:53:16;5.90;;;2.20;;
16922;SDS011;8578;50.938;13.556;2022-11-20T04:55:43;4.83;;;2.47;;
16922;SDS011;8578;50.938;13.556;2022-11-20T04:58:12;9.93;;;3.13;;
16922;SDS011;8578;50.938;13.556;2022-11-20T05:00:40;6.43;;;2.50;;
16922;SDS011;8578;50.938;13.556;2022-11-20T05:03:08;4.07;;;2.10;;
16922;SDS011;8578;50.938;13.556;2022-11-20T05:05:35;4.37;;;2.63;;
16922;SDS011;8578;50.938;13.556;2022-11-20T05:08:03;7.30;;;2.73;;
16922;SDS011;8578;50.938;13.556;2022-11-20T05:10:30;5.20;;;1.73;;
16922;SDS011;8578;50.938;13.556;2022-11-20T05:12:58;4.30;;;2.10;;
16922;SDS011;8578;50.938;13.556;2022-11-20T05:15:27;5.67;;;2.37;;
16922;SDS011;8578;50.938;13.556;2022-11-20T05:17:54;4.40;;;2.13;;
16922;SDS011;8578;50.938;13.556;2022-11-20T05:20:22;6.60;;;2.33;;
16922;SDS011;8578;50.938;13.556;2022-11-20T05:22:49;4.80;;;2.30;;
16922;SDS011;8578;50.938;13.556;2022-11-20T05:25:17;4.13;;;1.93;;
16922;SDS011;8578;50.938;13.556;2022-11-20T05:27:44;5.07;;;2.20;;
16922;SDS011;8578;50.938;13.556;2022-11-20T05:30:12;5.53;;;2.50;;
16922;SDS011;8578;50.938;13.556;2022-11-20T05:32:41;5.10;;;2.10;;
16922;SDS011;8578;50.938;13.556;2022-11-20T05:35:09;4.53;;;2.20;;
16922;SDS011;8578;50.938;13.556;2022-11-20T05:37:37;5.93;;;2.57;;
16922;SDS011;8578;50.938;13.556;2022-11-20T05:40:05;5.23;;;1.97;;
16922;SDS011;8578;50.938;13.556;2022-11-20T05:42:32;5.17;;;1.90;;
16922;SDS011;8578;50.938;13.556;2022-11-20T05:45:00;3.83;;;1.80;;
16922;SDS011;8578;50.938;13.556;2022-11-20T05:47:31;5.27;;;2.03;;
16922;SDS011;8578;50.938;13.556;2022-11-20T05:50:00;2.90;;;1.40;;
16922;SDS011;8578;50.938;13.556;2022-11-20T05:52:28;5.27;;;2.07;;
16922;SDS011;8578;50.938;13.556;2022-11-20T05:54:55;6.37;;;2.00;;
16922;SDS011;8578;50.938;13.556;2022-11-20T05:57:23;6.13;;;2.23;;
16922;SDS011;8578;50.938;13.556;2022-11-20T05:59:51;2.27;;;1.30;;
16922;SDS011;8578;50.938;13.556;2022-11-20T06:02:18;4.93;;;2.13;;
16922;SDS011;8578;50.938;13.556;2022-11-20T06:04:46;5.70;;;2.30;;
16922;SDS011;8578;50.938;13.556;2022-11-20T06:07:15;5.30;;;1.87;;
16922;SDS011;8578;50.938;13.556;2022-11-20T06:09:43;6.47;;;2.63;;
16922;SDS011;8578;50.938;13.556;2022-11-20T06:12:11;4.87;;;2.07;;
16922;SDS011;8578;50.938;13.556;2022-11-20T06:14:38;5.77;;;2.53;;
16922;SDS011;8578;50.938;13.556;2022-11-20T06:17:06;4.93;;;2.30;;
16922;SDS011;8578;50.938;13.556;2022-11-20T06:19:33;8.03;;;2.07;;
16922;SDS011;8578;50.938;13.556;2022-11-20T06:22:01;5.77;;;2.80;;
16922;SDS011;8578;50.938;13.556;2022-11-20T06:24:30;3.47;;;1.87;;
16922;SDS011;8578;50.938;13.556;2022-11-20T06:26:57;4.63;;;2.00;;
16922;SDS011;8578;50.938;13.556;2022-11-20T06:29:25;3.50;;;1.63;;
16922;SDS011;8578;50.938;13.556;2022-11-20T06:31:59;5.40;;;2.37;;
16922;SDS011;8578;50.938;13.556;2022-11-20T06:34:26;5.23;;;1.90;;
16922;SDS011;8578;50.938;13.556;2022-11-20T06:36:54;5.83;;;1.83;;
16922;SDS011;8578;50.938;13.556;2022-11-20T06:39:21;5.40;;;2.10;;
16922;SDS011;8578;50.938;13.556;2022-11-20T06:41:50;4.73;;;2.17;;
16922;SDS011;8578;50.938;13.556;2022-11-20T06:44:24;7.60;;;2.40;;
16922;SDS011;8578;50.938;13.556;2022-11-20T06:46:51;4.13;;;1.80;;
16922;SDS011;8578;50.938;13.556;2022-11-20T06:49:19;3.37;;;1.77;;
16922;SDS011;8578;50.938;13.556;2022-11-20T06:51:47;7.83;;;2.53;;
16922;SDS011;8578;50.938;13.556;2022-11-20T06:54:14;4.50;;;2.23;;
16922;SDS011;8578;50.938;13.556;2022-11-20T06:56:42;4.00;;;2.17;;
16922;SDS011;8578;50.938;13.556;2022-11-20T06:59:11;5.50;;;2.10;;
16922;SDS011;8578;50.938;13.556;2022-11-20T07:01:38;3.80;;;2.00;;
16922;SDS011;8578;50.938;13.556;2022-11-20T07:04:06;5.90;;;1.93;;
16922;SDS011;8578;50.938;13.556;2022-11-20T07:06:33;6.13;;;2.03;;
16922;SDS011;8578;50.938;13.556;2022-11-20T07:09:01;5.00;;;1.67;;
16922;SDS011;8578;50.938;13.556;2022-11-20T07:11:31;5.23;;;2.37;;
16922;SDS011;8578;50.938;13.556;2022-11-20T07:13:58;5.77;;;2.13;;
16922;SDS011;8578;50.938;13.556;2022-11-20T07:16:27;5.07;;;2.20;;
16922;SDS011;8578;50.938;13.556;2022-11-20T07:18:54;7.53;;;3.03;;
16922;SDS011;8578;50.938;13.556;2022-11-20T07:21:22;6.13;;;2.50;;
16922;SDS011;8578;50.938;13.556;2022-11-20T07:23:49;5.57;;;2.37;;
16922;SDS011;8578;50.938;13.556;2022-11-20T07:26:17;8.40;;;2.60;;
16922;SDS011;8578;50.938;13.556;2022-11-20T07:28:45;7.43;;;2.47;;
16922;SDS011;8578;50.938;13.556;2022-11-20T07:31:13;7.83;;;3.00;;
16922;SDS011;8578;50.938;13.556;2022-11-20T07:33:46;5.73;;;2.40;;
16922;SDS011;8578;50.938;13.556;2022-11-20T07:36:14;7.10;;;2.77;;
16922;SDS011;8578;50.938;13.556;2022-11-20T07:38:41;5.33;;;2.57;;
16922;SDS011;8578;50.938;13.556;2022-11-20T07:41:09;4.13;;;2.20;;
16922;SDS011;8578;50.938;13.556;2022-11-20T07:43:36;4.97;;;2.17;;
16922;SDS011;8578;50.938;13.556;2022-11-20T07:46:07;6.30;;;2.33;;
16922;SDS011;8578;50.938;13.556;2022-11-20T07:48:34;5.53;;;2.27;;
16922;SDS011;8578;50.938;13.556;2022-11-20T07:51:03;4.63;;;2.40;;
16922;SDS011;8578;50.938;13.556;2022-11-20T07:53:31;6.63;;;2.50;;
16922;SDS011;8578;50.938;13.556;2022-11-20T07:55:59;8.10;;;2.77;;
16922;SDS011;8578;50.938;13.556;2022-11-20T07:58:28;8.17;;;3.30;;
16922;SDS011;8578;50.938;13.556;2022-11-20T08:00:55;8.80;;;3.17;;
16922;SDS011;8578;50.938;13.556;2022-11-20T08:03:23;7.63;;;3.07;;
16922;SDS011;8578;50.938;13.556;2022-11-20T08:05:51;7.50;;;3.17;;
16922;SDS011;8578;50.938;13.556;2022-11-20T08:08:20;26.80;;;8.23;;
16922;SDS011;8578;50.938;13.556;2022-11-20T08:10:49;18.70;;;5.80;;
16922;SDS011;8578;50.938;13.556;2022-11-20T08:13:16;9.00;;;3.30;;
16922;SDS011;8578;50.938;13.556;2022-11-20T08:16:06;11.93;;;3.37;;
16922;SDS011;8578;50.938;13.556;2022-11-20T08:18:34;13.93;;;4.90;;
16922;SDS011;8578;50.938;13.556;2022-11-20T08:21:02;11.60;;;3.70;;
16922;SDS011;8578;50.938;13.556;2022-11-20T08:23:31;11.73;;;5.17;;
16922;SDS011;8578;50.938;13.556;2022-11-20T08:25:58;4.77;;;2.50;;
16922;SDS011;8578;50.938;13.556;2022-11-20T08:28:26;11.13;;;4.30;;
16922;SDS011;8578;50.938;13.556;2022-11-20T08:30:57;12.13;;;4.27;;
16922;SDS011;8578;50.938;13.556;2022-11-20T08:33:24;7.90;;;3.13;;
16922;SDS011;8578;50.938;13.556;2022-11-20T08:35:52;7.57;;;3.57;;
16922;SDS011;8578;50.938;13.556;2022-11-20T08:38:20;8.87;;;3.90;;
16922;SDS011;8578;50.938;13.556;2022-11-20T08:40:48;8.83;;;3.67;;
16922;SDS011;8578;50.938;13.556;2022-11-20T08:43:30;11.47;;;3.90;;
16922;SDS011;8578;50.938;13.556;2022-11-20T08:45:58;7.90;;;3.50;;
16922;SDS011;8578;50.938;13.556;2022-11-20T08:48:25;7.87;;;3.77;;
16922;SDS011;8578;50.938;13.556;2022-11-20T08:50:53;8.33;;;3.77;;
16922;SDS011;8578;50.938;13.556;2022-11-20T08:53:20;7.83;;;3.70;;
16922;SDS011;8578;50.938;13.556;2022-11-20T08:55:49;8.80;;;3.60;;
16922;SDS011;8578;50.938;13.556;2022-11-20T08:58:17;6.63;;;2.83;;
16922;SDS011;8578;50.938;13.556;2022-11-20T09:00:44;7.07;;;3.07;;
16922;SDS011;8578;50.938;13.556;2022-11-20T09:03:12;7.70;;;3.10;;
16922;SDS011;8578;50.938;13.556;2022-11-20T09:05:40;7.23;;;3.67;;
16922;SDS011;8578;50.938;13.556;2022-11-20T09:08:07;9.30;;;3.73;;
16922;SDS011;8578;50.938;13.556;2022-11-20T09:10:34;9.53;;;3.97;;
16922;SDS011;8578;50.938;13.556;2022-11-20T09:13:04;9.87;;;3.80;;
16922;SDS011;8578;50.938;13.556;2022-11-20T09:15:31;8.87;;;4.00;;
16922;SDS011;8578;50.938;13.556;2022-11-20T09:18:00;7.63;;;3.47;;
16922;SDS011;8578;50.938;13.556;2022-11-20T09:20:29;8.90;;;3.07;;
16922;SDS011;8578;50.938;13.556;2022-11-20T09:22:57;7.57;;;2.80;;
16922;SDS011;8578;50.938;13.556;2022-11-20T09:25:25;4.90;;;2.30;;
16922;SDS011;8578;50.938;13.556;2022-11-20T09:27:55;7.43;;;2.67;;
16922;SDS011;8578;50.938;13.556;2022-11-20T09:30:24;7.17;;;3.00;;
16922;SDS011;8578;50.938;13.556;2022-11-20T09:32:52;9.23;;;3.57;;
16922;SDS011;8578;50.938;13.556;2022-11-20T09:35:20;6.50;;;3.30;;
16922;SDS011;8578;50.938;13.556;2022-11-20T09:37:47;6.03;;;2.40;;
16922;SDS011;8578;50.938;13.556;2022-11-20T09:40:17;6.10;;;2.63;;
16922;SDS011;8578;50.938;13.556;2022-11-20T09:42:47;5.83;;;2.57;;
16922;SDS011;8578;50.938;13.556;2022-11-20T09:45:20;2.80;;;1.33;;
16922;SDS011;8578;50.938;13.556;2022-11-20T09:48:00;4.70;;;2.37;;
16922;SDS011;8578;50.938;13.556;2022-11-20T09:50:32;7.97;;;3.40;;
16922;SDS011;8578;50.938;13.556;2022-11-20T09:53:04;6.00;;;2.90;;
16922;SDS011;8578;50.938;13.556;2022-11-20T09:55:35;6.23;;;3.27;;
16922;SDS011;8578;50.938;13.556;2022-11-20T09:58:04;4.73;;;2.80;;
16922;SDS011;8578;50.938;13.556;2022-11-20T10:00:33;5.03;;;2.33;;
16922;SDS011;8578;50.938;13.556;2022-11-20T10:03:03;4.60;;;2.10;;
16922;SDS011;8578;50.938;13.556;2022-11-20T10:05:34;6.37;;;2.90;;
16922;SDS011;8578;50.938;13.556;2022-11-20T10:08:07;5.90;;;2.67;;
16922;SDS011;8578;50.938;13.556;2022-11-20T10:10:40;2.73;;;1.50;;
16922;SDS011;8578;50.938;13.556;2022-11-20T10:13:15;6.07;;;2.90;;
16922;SDS011;8578;50.938;13.556;2022-11-20T10:15:46;4.73;;;2.13;;
16922;SDS011;8578;50.938;13.556;2022-11-20T10:18:26;3.67;;;1.80;;
16922;SDS011;8578;50.938;13.556;2022-11-20T10:20:56;5.37;;;2.43;;
16922;SDS011;8578;50.938;13.556;2022-11-20T10:23:35;5.07;;;2.40;;
16922;SDS011;8578;50.938;13.556;2022-11-20T10:26:15;7.03;;;3.50;;
16922;SDS011;8578;50.938;13.556;2022-11-20T10:28:46;6.90;;;3.03;;
16922;SDS011;8578;50.938;13.556;2022-11-20T10:31:26;6.70;;;2.70;;
16922;SDS011;8578;50.938;13.556;2022-11-20T10:33:56;5.33;;;2.70;;
16922;SDS011;8578;50.938;13.556;2022-11-20T10:36:46;11.70;;;4.40;;
16922;SDS011;8578;50.938;13.556;2022-11-20T10:39:15;2.10;;;1.03;;
16922;SDS011;8578;50.938;13.556;2022-11-20T10:41:45;7.63;;;3.30;;
16922;SDS011;8578;50.938;13.556;2022-11-20T10:44:15;9.17;;;4.23;;
16922;SDS011;8578;50.938;13.556;2022-11-20T10:47:04;8.43;;;2.73;;
16922;SDS011;8578;50.938;13.556;2022-11-20T10:49:33;8.67;;;3.47;;
16922;SDS011;8578;50.938;13.556;2022-11-20T10:52:04;7.73;;;3.40;;
16922;SDS011;8578;50.938;13.556;2022-11-20T10:54:34;12.30;;;5.13;;
16922;SDS011;8578;50.938;13.556;2022-11-20T10:57:06;9.10;;;3.43;;
16922;SDS011;8578;50.938;13.556;2022-11-20T10:59:38;7.77;;;3.33;;
16922;SDS011;8578;50.938;13.556;2022-11-20T11:02:14;6.57;;;2.40;;
16922;SDS011;8578;50.938;13.556;2022-11-20T11:04:44;5.27;;;1.97;;
16922;SDS011;8578;50.938;13.556;2022-11-20T11:07:14;5.40;;;2.60;;
16922;SDS011;8578;50.938;13.556;2022-11-20T11:09:43;5.77;;;3.20;;
16922;SDS011;8578;50.938;13.556;2022-11-20T11:12:11;5.63;;;2.50;;
16922;SDS011;8578;50.938;13.556;2022-11-20T11:14:42;8.80;;;3.23;;
16922;SDS011;8578;50.938;13.556;2022-11-20T11:17:18;13.70;;;4.70;;
16922;SDS011;8578;50.938;13.556;2022-11-20T11:19:57;13.33;;;5.33;;
16922;SDS011;8578;50.938;13.556;2022-11-20T11:22:25;9.80;;;4.67;;
16922;SDS011;8578;50.938;13.556;2022-11-20T11:24:55;9.67;;;4.30;;
16922;SDS011;8578;50.938;13.556;2022-11-20T11:27:23;9.37;;;4.43;;
16922;SDS011;8578;50.938;13.556;2022-11-20T11:29:50;8.80;;;4.27;;
16922;SDS011;8578;50.938;13.556;2022-11-20T11:32:28;7.83;;;3.60;;
16922;SDS011;8578;50.938;13.556;2022-11-20T11:35:00;10.30;;;4.90;;
16922;SDS011;8578;50.938;13.556;2022-11-20T11:37:29;8.07;;;3.73;;
16922;SDS011;8578;50.938;13.556;2022-11-20T11:40:00;7.73;;;3.47;;
16922;SDS011;8578;50.938;13.556;2022-11-20T11:42:50;9.87;;;4.60;;
16922;SDS011;8578;50.938;13.556;2022-11-20T11:45:18;7.83;;;3.77;;
16922;SDS011;8578;50.938;13.556;2022-11-20T11:47:45;10.17;;;4.33;;
16922;SDS011;8578;50.938;13.556;2022-11-20T11:50:16;9.37;;;4.17;;
16922;SDS011;8578;50.938;13.556;2022-11-20T11:52:45;8.67;;;3.07;;
16922;SDS011;8578;50.938;13.556;2022-11-20T11:55:14;10.40;;;4.60;;
16922;SDS011;8578;50.938;13.556;2022-11-20T11:57:43;8.70;;;3.87;;
16922;SDS011;8578;50.938;13.556;2022-11-20T12:00:15;10.77;;;4.57;;
16922;SDS011;8578;50.938;13.556;2022-11-20T12:02:47;10.97;;;4.63;;
16922;SDS011;8578;50.938;13.556;2022-11-20T12:05:19;8.33;;;3.17;;
16922;SDS011;8578;50.938;13.556;2022-11-20T12:07:49;7.33;;;3.30;;
16922;SDS011;8578;50.938;13.556;2022-11-20T12:10:20;9.10;;;3.83;;
16922;SDS011;8578;50.938;13.556;2022-11-20T12:12:49;7.00;;;3.13;;
16922;SDS011;8578;50.938;13.556;2022-11-20T12:15:21;9.83;;;4.60;;
16922;SDS011;8578;50.938;13.556;2022-11-20T12:17:49;12.87;;;5.40;;
16922;SDS011;8578;50.938;13.556;2022-11-20T12:20:18;14.20;;;5.43;;
16922;SDS011;8578;50.938;13.556;2022-11-20T12:22:49;11.47;;;5.57;;
16922;SDS011;8578;50.938;13.556;2022-11-20T12:25:20;7.07;;;2.93;;
16922;SDS011;8578;50.938;13.556;2022-11-20T12:27:53;12.33;;;5.80;;
16922;SDS011;8578;50.938;13.556;2022-11-20T12:30:28;12.80;;;5.70;;
16922;SDS011;8578;50.938;13.556;2022-11-20T12:33:08;11.20;;;5.00;;
16922;SDS011;8578;50.938;13.556;2022-11-20T12:35:49;8.73;;;4.23;;
16922;SDS011;8578;50.938;13.556;2022-11-20T12:38:27;4.83;;;2.67;;
16922;SDS011;8578;50.938;13.556;2022-11-20T12:41:01;12.83;;;5.30;;
16922;SDS011;8578;50.938;13.556;2022-11-20T12:43:33;9.13;;;3.53;;
16922;SDS011;8578;50.938;13.556;2022-11-20T12:46:23;11.60;;;5.60;;
16922;SDS011;8578;50.938;13.556;2022-11-20T12:49:02;5.20;;;2.20;;
16922;SDS011;8578;50.938;13.556;2022-11-20T12:51:40;10.03;;;3.67;;
16922;SDS011;8578;50.938;13.556;2022-11-20T12:54:32;7.53;;;3.80;;
16922;SDS011;8578;50.938;13.556;2022-11-20T12:57:03;8.17;;;3.03;;
16922;SDS011;8578;50.938;13.556;2022-11-20T12:59:38;11.07;;;4.67;;
16922;SDS011;8578;50.938;13.556;2022-11-20T13:02:16;11.70;;;5.50;;
16922;SDS011;8578;50.938;13.556;2022-11-20T13:04:50;7.30;;;3.10;;
16922;SDS011;8578;50.938;13.556;2022-11-20T13:07:22;8.57;;;4.07;;
16922;SDS011;8578;50.938;13.556;2022-11-20T13:09:52;10.03;;;4.40;;
16922;SDS011;8578;50.938;13.556;2022-11-20T13:12:22;11.27;;;5.10;;
16922;SDS011;8578;50.938;13.556;2022-11-20T13:14:53;8.37;;;4.20;;
16922;SDS011;8578;50.938;13.556;2022-11-20T13:17:23;6.43;;;3.23;;
16922;SDS011;8578;50.938;13.556;2022-11-20T13:19:54;9.57;;;4.67;;
16922;SDS011;8578;50.938;13.556;2022-11-20T13:22:27;9.97;;;4.47;;
16922;SDS011;8578;50.938;13.556;2022-11-20T13:24:54;8.80;;;4.37;;
16922;SDS011;8578;50.938;13.556;2022-11-20T13:27:22;9.13;;;4.40;;
16922;SDS011;8578;50.938;13.556;2022-11-20T13:30:00;8.63;;;3.60;;
16922;SDS011;8578;50.938;13.556;2022-11-20T13:32:28;8.13;;;3.23;;
16922;SDS011;8578;50.938;13.556;2022-11-20T13:34:59;7.90;;;2.97;;
16922;SDS011;8578;50.938;13.556;2022-11-20T13:37:29;7.17;;;3.13;;
16922;SDS011;8578;50.938;13.556;2022-11-20T13:40:19;5.90;;;2.73;;
16922;SDS011;8578;50.938;13.556;2022-11-20T13:42:54;6.83;;;3.37;;
16922;SDS011;8578;50.938;13.556;2022-11-20T13:45:22;4.80;;;3.20;;
16922;SDS011;8578;50.938;13.556;2022-11-20T13:47:50;5.70;;;3.10;;
16922;SDS011;8578;50.938;13.556;2022-11-20T13:50:18;8.47;;;3.73;;
16922;SDS011;8578;50.938;13.556;2022-11-20T13:52:49;8.27;;;2.70;;
16922;SDS011;8578;50.938;13.556;2022-11-20T13:55:20;4.60;;;2.70;;
16922;SDS011;8578;50.938;13.556;2022-11-20T13:57:54;7.20;;;2.93;;
16922;SDS011;8578;50.938;13.556;2022-11-20T14:00:24;5.50;;;2.87;;
16922;SDS011;8578;50.938;13.556;2022-11-20T14:02:57;4.37;;;2.60;;
16922;SDS011;8578;50.938;13.556;2022-11-20T14:05:26;5.93;;;3.57;;
16922;SDS011;8578;50.938;13.556;2022-11-20T14:07:55;8.73;;;3.80;;
16922;SDS011;8578;50.938;13.556;2022-11-20T14:10:24;5.67;;;3.17;;
16922;SDS011;8578;50.938;13.556;2022-11-20T14:12:57;5.73;;;2.83;;
16922;SDS011;8578;50.938;13.556;2022-11-20T14:15:26;3.93;;;1.70;;
16922;SDS011;8578;50.938;13.556;2022-11-20T14:17:54;1.87;;;0.90;;
16922;SDS011;8578;50.938;13.556;2022-11-20T14:20:23;6.57;;;3.47;;
16922;SDS011;8578;50.938;13.556;2022-11-20T14:22:52;4.50;;;2.03;;
16922;SDS011;8578;50.938;13.556;2022-11-20T14:25:22;8.17;;;3.27;;
16922;SDS011;8578;50.938;13.556;2022-11-20T14:27:53;7.40;;;3.53;;
16922;SDS011;8578;50.938;13.556;2022-11-20T14:30:21;9.43;;;4.30;;
16922;SDS011;8578;50.938;13.556;2022-11-20T14:32:49;6.33;;;3.47;;
16922;SDS011;8578;50.938;13.556;2022-11-20T14:35:27;9.90;;;4.63;;
16922;SDS011;8578;50.938;13.556;2022-11-20T14:37:55;8.23;;;3.93;;
16922;SDS011;8578;50.938;13.556;2022-11-20T14:40:25;9.53;;;4.00;;
16922;SDS011;8578;50.938;13.556;2022-11-20T14:42:54;6.37;;;3.33;;
16922;SDS011;8578;50.938;13.556;2022-11-20T14:45:21;8.83;;;4.00;;
16922;SDS011;8578;50.938;13.556;2022-11-20T14:47:49;11.17;;;4.73;;
16922;SDS011;8578;50.938;13.556;2022-11-20T14:50:18;9.97;;;4.57;;
16922;SDS011;8578;50.938;13.556;2022-11-20T14:52:50;10.23;;;4.63;;
16922;SDS011;8578;50.938;13.556;2022-11-20T14:55:29;8.67;;;3.57;;
16922;SDS011;8578;50.938;13.556;2022-11-20T14:57:57;8.83;;;4.23;;
16922;SDS011;8578;50.938;13.556;2022-11-20T15:00:25;9.90;;;4.87;;
16922;SDS011;8578;50.938;13.556;2022-11-20T15:02:54;10.93;;;4.03;;
16922;SDS011;8578;50.938;13.556;2022-11-20T15:05:22;6.40;;;3.13;;